KBOS/BOS METAR and TAF weather

Enter ICAO airport designator
Station Type Date Time Source
KBOS METAR 2018/01/21 10:54 UTC NOAA

KBOS 211054Z 00000KT 10SM OVC160 02/M02 A3007 RMK AO2 SLP182 T00221017


Station Type Date Time Source
KBOS Decoded METAR 2018/01/21 10:54 UTC NOAA

BOSTON LOGAN INTERNATIONAL, MA, United States (KBOS) 42-22N 071-01W 54M
Jan 21, 2018 - 05:54 AM EST / 2018.01.21 1054 UTC
Wind: Calm:0
Visibility: 10 mile(s):0
Sky conditions: overcast
Temperature: 36.0 F (2.2 C)
Dew Point: 28.9 F (-1.7 C)
Relative Humidity: 75%
Pressure (altimeter): 30.07 in. Hg (1018 hPa)
ob: KBOS 211054Z 00000KT 10SM OVC160 02/M02 A3007 RMK AO2 SLP182 T00221017
cycle: 11

Station Type Date Time Source
KBOS TAF 2018/01/21 12:26 UTC NOAA

TAF KBOS 211120Z 2112/2218 28006KT P6SM BKN250
FM212100 00000KT P6SM SCT150
FM221500 06004KT P6SM BKN015


Example: see airport list